createdAt,value
2022-10-21T00:01:59.912Z,76.94
2022-10-21T00:04:27.235Z,77.52
2022-10-21T00:06:54.516Z,78.20
2022-10-21T00:09:21.757Z,77.97
2022-10-21T00:11:48.919Z,77.91
2022-10-21T00:14:16.200Z,77.81
2022-10-21T00:16:43.388Z,77.93
2022-10-21T00:19:10.624Z,78.14
2022-10-21T00:21:37.933Z,77.93
2022-10-21T00:24:05.281Z,78.03
2022-10-21T00:26:35.023Z,78.54
2022-10-21T00:29:05.561Z,77.74
2022-10-21T00:31:34.761Z,77.64
2022-10-21T00:34:01.949Z,78.10
2022-10-21T00:36:29.104Z,78.54
2022-10-21T00:38:56.675Z,78.95
2022-10-21T00:41:23.942Z,79.24
2022-10-21T00:43:54.132Z,79.56
2022-10-21T00:46:24.641Z,79.73
2022-10-21T00:48:55.673Z,79.31
2022-10-21T00:51:22.966Z,79.48
2022-10-21T00:53:50.398Z,80.16
2022-10-21T00:56:26.220Z,80.40
2022-10-21T00:58:55.167Z,80.64
2022-10-21T01:01:22.458Z,80.60
2022-10-21T01:03:50.190Z,80.15
2022-10-21T01:06:19.947Z,80.32
2022-10-21T01:08:47.371Z,80.48
2022-10-21T01:11:16.005Z,80.62
2022-10-21T01:13:49.241Z,80.82
2022-10-21T01:16:22.447Z,81.41
2022-10-21T01:18:49.556Z,81.75
2022-10-21T01:21:38.378Z,81.68
2022-10-21T01:24:14.657Z,82.14
2022-10-21T01:26:44.844Z,82.00
2022-10-21T01:29:11.965Z,82.18
2022-10-21T01:31:56.153Z,82.50
2022-10-21T01:34:28.925Z,82.80
2022-10-21T01:37:08.725Z,83.09
2022-10-21T01:39:41.105Z,83.20
2022-10-21T01:42:15.466Z,83.39
2022-10-21T01:45:05.926Z,82.96
2022-10-21T01:47:34.734Z,83.10
2022-10-21T01:50:05.473Z,83.13
2022-10-21T01:52:32.621Z,83.52
2022-10-21T01:55:04.404Z,83.42
2022-10-21T01:57:34.362Z,83.72
2022-10-21T02:00:01.885Z,84.02
2022-10-21T02:02:34.104Z,84.22
2022-10-21T02:05:04.356Z,84.12
2022-10-21T02:07:31.538Z,83.85
2022-10-21T02:09:59.035Z,83.79
2022-10-21T02:12:28.801Z,83.86
2022-10-21T02:14:58.349Z,84.00
2022-10-21T02:17:27.226Z,84.32
2022-10-21T02:19:57.883Z,84.03
2022-10-21T02:22:25.494Z,83.58
2022-10-21T02:24:54.879Z,84.10
2022-10-21T02:27:22.869Z,84.70
2022-10-21T02:29:52.085Z,84.23
2022-10-21T02:32:28.624Z,84.14
2022-10-21T02:34:58.492Z,84.64
2022-10-21T02:37:25.611Z,85.25
2022-10-21T02:39:56.994Z,85.42
2022-10-21T02:42:27.278Z,86.53
2022-10-21T02:44:54.455Z,86.08
2022-10-21T02:47:23.524Z,85.82
2022-10-21T02:49:50.662Z,86.87
2022-10-21T02:52:18.032Z,88.94
2022-10-21T02:54:45.210Z,88.35
2022-10-21T02:57:12.362Z,87.95
2022-10-21T02:59:39.566Z,87.62
2022-10-21T03:02:06.677Z,87.34
2022-10-21T03:04:33.847Z,87.16
2022-10-21T03:07:00.998Z,87.12
2022-10-21T03:09:28.171Z,86.93
2022-10-21T03:11:55.334Z,86.81
2022-10-21T03:14:22.445Z,86.48
2022-10-21T03:16:49.595Z,87.12
2022-10-21T03:19:16.732Z,86.53
2022-10-21T03:21:43.826Z,86.43
2022-10-21T03:24:15.400Z,86.29
2022-10-21T03:26:52.394Z,86.76
2022-10-21T03:29:19.573Z,86.89
2022-10-21T03:31:46.732Z,88.00
2022-10-21T03:34:13.877Z,88.28
2022-10-21T03:36:40.989Z,87.64
2022-10-21T03:39:08.031Z,87.37
2022-10-21T03:41:35.108Z,87.52
2022-10-21T03:44:02.217Z,87.40
2022-10-21T03:46:29.362Z,87.44
2022-10-21T03:49:00.917Z,87.11
2022-10-21T03:51:31.622Z,87.11
2022-10-21T03:53:58.747Z,87.13
2022-10-21T03:56:25.932Z,88.01
2022-10-21T03:58:56.381Z,87.32
2022-10-21T04:01:26.084Z,87.20
2022-10-21T04:03:53.472Z,87.27
2022-10-21T04:06:20.774Z,86.87
2022-10-21T04:08:48.010Z,85.95
2022-10-21T04:11:15.352Z,86.19
2022-10-21T04:13:42.554Z,86.61
2022-10-21T04:16:12.891Z,86.72
2022-10-21T04:18:40.067Z,87.19
2022-10-21T04:21:08.763Z,87.36
2022-10-21T04:23:36.415Z,87.81
2022-10-21T04:26:13.598Z,87.93
2022-10-21T04:28:40.834Z,88.12
2022-10-21T04:31:08.191Z,88.60
2022-10-21T04:33:35.560Z,88.32
2022-10-21T04:36:02.794Z,88.29
2022-10-21T04:38:30.024Z,88.58
2022-10-21T04:40:58.276Z,88.34
2022-10-21T04:43:25.833Z,89.22
2022-10-21T04:45:53.613Z,91.06
2022-10-21T04:48:21.053Z,92.72
2022-10-21T04:50:49.086Z,93.28
2022-10-21T04:53:16.777Z,92.49
2022-10-21T04:55:44.180Z,91.24
2022-10-21T04:58:11.325Z,90.91
2022-10-21T05:00:38.498Z,90.00
2022-10-21T05:03:05.688Z,89.20
2022-10-21T05:05:32.785Z,89.19
2022-10-21T05:07:59.887Z,89.29
2022-10-21T05:10:27.209Z,89.73
2022-10-21T05:12:54.359Z,88.42
2022-10-21T05:15:21.541Z,88.30
2022-10-21T05:17:48.679Z,88.21
2022-10-21T05:20:15.780Z,88.16
2022-10-21T05:22:42.893Z,87.65
2022-10-21T05:25:10.470Z,87.32
2022-10-21T05:27:37.662Z,87.23
2022-10-21T05:30:05.208Z,86.89
2022-10-21T05:32:32.309Z,87.27
2022-10-21T05:34:59.407Z,87.50
2022-10-21T05:37:26.529Z,87.38
2022-10-21T05:39:53.599Z,87.52
2022-10-21T05:42:20.752Z,87.97
2022-10-21T05:44:48.323Z,88.50
2022-10-21T05:47:15.448Z,88.17
2022-10-21T05:49:42.599Z,87.90
2022-10-21T05:52:09.771Z,88.09
2022-10-21T05:54:36.874Z,88.30
2022-10-21T05:57:04.126Z,88.34
2022-10-21T05:59:31.437Z,88.50
2022-10-21T06:01:58.608Z,89.01
2022-10-21T06:04:25.735Z,89.28
2022-10-21T06:06:52.921Z,89.38
2022-10-21T06:09:20.092Z,89.61
2022-10-21T06:11:47.218Z,89.06
2022-10-21T06:14:14.349Z,88.41
2022-10-21T06:16:41.498Z,88.22
2022-10-21T06:19:08.579Z,88.25
2022-10-21T06:21:35.660Z,88.29
2022-10-21T06:24:02.818Z,88.23
2022-10-21T06:26:32.077Z,88.38
2022-10-21T06:29:01.857Z,88.37
2022-10-21T06:31:28.986Z,88.42
2022-10-21T06:33:56.120Z,88.41
2022-10-21T06:36:23.272Z,88.31
2022-10-21T06:38:50.550Z,88.14
2022-10-21T06:41:18.818Z,88.24
2022-10-21T06:43:46.591Z,88.26
2022-10-21T06:46:14.829Z,88.20
2022-10-21T06:48:41.926Z,88.50
2022-10-21T06:51:14.996Z,88.09
2022-10-21T06:53:43.031Z,87.61
2022-10-21T06:56:11.841Z,86.65
2022-10-21T06:58:39.894Z,86.29
2022-10-21T07:01:16.548Z,85.41
2022-10-21T07:03:55.427Z,84.77
2022-10-21T07:06:22.802Z,84.59
2022-10-21T07:08:57.885Z,85.50
2022-10-21T07:11:26.465Z,85.33
2022-10-21T07:13:53.746Z,85.28
2022-10-21T07:16:22.485Z,85.79
2022-10-21T07:18:49.714Z,85.51
2022-10-21T07:21:18.201Z,85.61
2022-10-21T07:23:46.531Z,86.28
2022-10-21T07:26:14.412Z,86.77
2022-10-21T07:28:42.211Z,85.74
2022-10-21T07:31:09.337Z,85.15
2022-10-21T07:33:36.645Z,85.13
2022-10-21T07:36:05.052Z,85.20
2022-10-21T07:38:32.196Z,84.30
2022-10-21T07:40:59.503Z,84.01
2022-10-21T07:43:26.709Z,83.79
2022-10-21T07:45:53.939Z,82.62
2022-10-21T07:48:23.427Z,81.75
2022-10-21T07:50:51.698Z,82.17
2022-10-21T07:53:19.779Z,82.24
2022-10-21T07:55:47.345Z,81.61
2022-10-21T07:58:14.453Z,82.03
2022-10-21T08:00:44.837Z,81.29
2022-10-21T08:03:12.816Z,82.06
2022-10-21T08:05:40.704Z,82.94
2022-10-21T08:08:08.208Z,83.36
2022-10-21T08:10:39.166Z,83.05
2022-10-21T08:13:06.454Z,83.20
2022-10-21T08:15:33.563Z,83.11
2022-10-21T08:18:00.691Z,82.80
2022-10-21T08:20:27.904Z,81.65
2022-10-21T08:22:55.070Z,81.71
2022-10-21T08:25:22.168Z,81.88
2022-10-21T08:27:49.322Z,82.07
2022-10-21T08:30:16.565Z,82.82
2022-10-21T08:32:43.752Z,82.33
2022-10-21T08:35:11.569Z,82.57
2022-10-21T08:37:38.906Z,82.00
2022-10-21T08:40:06.650Z,81.77
2022-10-21T08:42:33.935Z,81.57
2022-10-21T08:45:03.764Z,82.12
2022-10-21T08:47:45.324Z,81.92
2022-10-21T08:50:15.985Z,81.25
2022-10-21T08:52:59.743Z,80.28
2022-10-21T08:55:44.071Z,81.14
2022-10-21T08:58:21.844Z,79.85
2022-10-21T09:00:51.917Z,80.45
2022-10-21T09:03:31.585Z,80.73
2022-10-21T09:06:14.843Z,80.44
2022-10-21T09:08:52.560Z,79.88
2022-10-21T09:11:31.337Z,80.30
2022-10-21T09:14:07.563Z,80.06
2022-10-21T09:16:47.977Z,79.83
2022-10-21T09:19:31.126Z,79.32
2022-10-21T09:22:33.704Z,78.88
2022-10-21T09:24:59.720Z,78.50
2022-10-21T09:27:37.956Z,77.50
2022-10-21T09:30:15.708Z,77.31
2022-10-21T09:32:49.715Z,76.95
2022-10-21T09:35:32.575Z,78.45
2022-10-21T09:38:32.296Z,78.15
2022-10-21T09:41:03.357Z,79.10
2022-10-21T09:43:30.916Z,77.49
2022-10-21T09:45:58.219Z,77.79
2022-10-21T09:48:35.125Z,77.63
2022-10-21T09:51:14.510Z,78.00
2022-10-21T09:53:53.757Z,77.18
2022-10-21T09:56:26.033Z,77.68
2022-10-21T09:59:08.898Z,77.79
2022-10-21T10:01:36.830Z,77.97
2022-10-21T10:04:22.196Z,78.11
2022-10-21T10:06:49.546Z,77.47
2022-10-21T10:09:24.406Z,77.30
2022-10-21T10:11:53.789Z,77.61
2022-10-21T10:14:33.670Z,78.02
2022-10-21T10:17:19.354Z,78.95
2022-10-21T10:20:01.526Z,78.97
2022-10-21T10:22:29.780Z,78.78
2022-10-21T10:25:11.943Z,78.37
2022-10-21T10:27:48.088Z,78.01
2022-10-21T10:30:16.302Z,77.04
2022-10-21T10:32:44.379Z,77.30
2022-10-21T10:35:22.536Z,77.66
2022-10-21T10:37:50.303Z,77.43
2022-10-21T10:40:21.399Z,76.75
2022-10-21T10:42:48.654Z,76.46
2022-10-21T10:45:19.632Z,76.79
2022-10-21T10:47:48.538Z,77.09
2022-10-21T10:50:34.521Z,76.90
2022-10-21T10:53:10.867Z,76.91
2022-10-21T10:55:42.875Z,76.49
2022-10-21T10:58:12.747Z,76.90
2022-10-21T11:00:45.158Z,76.59
2022-10-21T11:03:15.656Z,76.13
2022-10-21T11:05:44.896Z,75.60
2022-10-21T11:08:14.879Z,76.04
2022-10-21T11:10:45.909Z,76.52
2022-10-21T11:13:17.864Z,76.33
2022-10-21T11:15:54.227Z,76.52
2022-10-21T11:18:50.461Z,76.38
2022-10-21T11:21:17.634Z,76.48
2022-10-21T11:23:44.834Z,76.63
2022-10-21T11:26:14.816Z,77.15
2022-10-21T11:28:50.148Z,76.69
2022-10-21T11:31:17.371Z,77.15
2022-10-21T11:33:56.559Z,77.02
2022-10-21T11:36:47.194Z,77.35
2022-10-21T11:39:33.139Z,77.86
2022-10-21T11:42:06.448Z,77.66
2022-10-21T11:44:51.510Z,77.39
2022-10-21T11:47:31.160Z,76.31
2022-10-21T11:50:03.941Z,76.82
2022-10-21T11:52:38.070Z,77.76
2022-10-21T11:55:10.857Z,77.74
2022-10-21T11:57:44.378Z,77.95
2022-10-21T12:00:11.659Z,77.81
2022-10-21T12:02:42.424Z,78.13
2022-10-21T12:05:09.704Z,78.64
2022-10-21T12:08:03.071Z,78.17
2022-10-21T12:10:44.057Z,78.52
2022-10-21T12:13:17.170Z,78.23
2022-10-21T12:15:49.638Z,78.33
2022-10-21T12:18:19.413Z,78.65
2022-10-21T12:20:48.186Z,78.22
2022-10-21T12:23:18.174Z,78.41
2022-10-21T12:26:09.754Z,78.70
2022-10-21T12:28:39.929Z,79.14
2022-10-21T12:31:23.735Z,78.10
2022-10-21T12:33:51.227Z,78.88
2022-10-21T12:36:20.510Z,78.65
2022-10-21T12:38:52.112Z,79.45
2022-10-21T12:41:34.568Z,79.19
2022-10-21T12:44:01.713Z,79.42
2022-10-21T12:46:41.304Z,80.01
2022-10-21T12:49:22.200Z,81.04
2022-10-21T12:51:49.404Z,80.54
2022-10-21T12:54:19.221Z,81.63
2022-10-21T12:56:51.091Z,82.45
2022-10-21T12:59:32.321Z,82.87
2022-10-21T13:02:05.440Z,82.87
2022-10-21T13:04:32.638Z,83.87
2022-10-21T13:07:03.950Z,87.42
2022-10-21T13:09:40.243Z,87.36
2022-10-21T13:12:10.239Z,87.02
2022-10-21T13:14:46.628Z,86.65
2022-10-21T13:17:15.360Z,84.95
2022-10-21T13:19:42.608Z,86.03
2022-10-21T13:22:15.024Z,86.50
2022-10-21T13:24:42.471Z,86.30
2022-10-21T13:27:45.905Z,86.88
2022-10-21T13:30:30.896Z,85.33
2022-10-21T13:33:14.964Z,85.98
2022-10-21T13:36:08.434Z,86.00
2022-10-21T13:38:36.743Z,84.52
2022-10-21T13:41:05.617Z,84.47
2022-10-21T13:43:39.212Z,82.26
2022-10-21T13:46:06.485Z,80.92
2022-10-21T13:48:44.407Z,80.08
2022-10-21T13:51:20.698Z,80.79
2022-10-21T13:53:48.493Z,82.15
2022-10-21T13:56:18.416Z,82.17
2022-10-21T13:58:45.644Z,81.84
2022-10-21T14:01:14.790Z,81.22
2022-10-21T14:03:42.354Z,79.62
2022-10-21T14:06:15.220Z,79.02
2022-10-21T14:08:43.603Z,79.50
2022-10-21T14:11:22.472Z,79.55
2022-10-21T14:13:50.496Z,79.90
2022-10-21T14:16:26.902Z,79.05
2022-10-21T14:18:54.162Z,78.18
2022-10-21T14:21:22.696Z,77.14
2022-10-21T14:23:50.122Z,75.88
2022-10-21T14:26:18.234Z,76.33
2022-10-21T14:28:46.703Z,77.07
2022-10-21T14:31:14.653Z,77.25
2022-10-21T14:33:45.017Z,75.82
2022-10-21T14:36:26.132Z,75.07
2022-10-21T14:39:01.429Z,75.03
2022-10-21T14:41:31.591Z,73.61
2022-10-21T14:44:04.918Z,73.39
2022-10-21T14:46:40.148Z,74.38
2022-10-21T14:49:18.713Z,74.03
2022-10-21T14:51:46.200Z,72.80
2022-10-21T14:54:20.744Z,72.79
2022-10-21T14:56:48.022Z,73.79
2022-10-21T14:59:25.549Z,72.38
2022-10-21T15:01:52.886Z,72.36
2022-10-21T15:04:40.620Z,73.37
2022-10-21T15:07:37.302Z,72.71
2022-10-21T15:10:04.769Z,71.86
2022-10-21T15:12:53.566Z,72.35
2022-10-21T15:15:39.953Z,72.37
2022-10-21T15:18:25.979Z,71.50
2022-10-21T15:20:57.845Z,72.66
2022-10-21T15:23:31.162Z,72.57
2022-10-21T15:26:00.564Z,72.41
2022-10-21T15:28:29.490Z,72.56
2022-10-21T15:30:57.038Z,71.70
2022-10-21T15:33:24.301Z,71.80
2022-10-21T15:36:01.392Z,71.28
2022-10-21T15:38:28.554Z,71.18
2022-10-21T15:40:56.081Z,71.39
2022-10-21T15:43:23.269Z,71.12
2022-10-21T15:45:50.467Z,71.39
2022-10-21T15:48:17.733Z,71.29
2022-10-21T15:50:44.853Z,71.74
2022-10-21T15:53:12.131Z,71.71
2022-10-21T15:55:39.425Z,71.67
2022-10-21T15:58:07.485Z,70.91
2022-10-21T16:00:39.989Z,70.95
2022-10-21T16:03:08.645Z,70.29
2022-10-21T16:05:37.261Z,70.49
2022-10-21T16:08:04.949Z,70.17
2022-10-21T16:10:34.948Z,70.06
2022-10-21T16:13:02.291Z,70.29
2022-10-21T16:15:29.796Z,70.46
2022-10-21T16:17:57.701Z,70.53
2022-10-21T16:20:31.700Z,70.56
2022-10-21T16:23:02.041Z,70.86
2022-10-21T16:25:30.902Z,70.97
2022-10-21T16:27:58.100Z,70.87
2022-10-21T16:30:26.972Z,71.13
2022-10-21T16:32:54.280Z,71.55
2022-10-21T16:35:21.497Z,71.28
2022-10-21T16:37:49.306Z,71.72
2022-10-21T16:40:18.510Z,71.67
2022-10-21T16:42:45.795Z,71.63
2022-10-21T16:45:13.585Z,71.67
2022-10-21T16:47:43.467Z,71.45
2022-10-21T16:50:16.952Z,72.44
2022-10-21T16:52:44.061Z,71.47
2022-10-21T16:55:11.401Z,71.46
2022-10-21T16:57:38.861Z,71.72
2022-10-21T17:00:06.526Z,71.50
2022-10-21T17:02:37.986Z,71.51
2022-10-21T17:05:07.616Z,71.75
2022-10-21T17:07:34.738Z,71.41
2022-10-21T17:10:02.197Z,71.66
2022-10-21T17:12:32.561Z,72.08
2022-10-21T17:15:00.461Z,72.23
2022-10-21T17:17:27.589Z,72.01
2022-10-21T17:19:54.773Z,71.54
2022-10-21T17:22:22.060Z,71.88
2022-10-21T17:24:49.199Z,71.26
2022-10-21T17:27:19.573Z,70.30
2022-10-21T17:29:47.062Z,69.35
2022-10-21T17:32:14.202Z,69.86
2022-10-21T17:34:41.806Z,69.05
2022-10-21T17:37:09.695Z,69.29
2022-10-21T17:39:55.479Z,69.04
2022-10-21T17:42:22.556Z,70.30
2022-10-21T17:44:49.739Z,70.11
2022-10-21T17:47:16.904Z,70.15
2022-10-21T17:49:44.029Z,70.07
2022-10-21T17:52:11.095Z,70.04
2022-10-21T17:54:38.182Z,69.81
2022-10-21T17:57:05.386Z,69.08
2022-10-21T17:59:32.964Z,69.11
2022-10-21T18:02:00.545Z,68.84
2022-10-21T18:04:28.652Z,69.63
2022-10-21T18:06:55.881Z,68.94
2022-10-21T18:09:23.150Z,69.92
2022-10-21T18:11:50.452Z,69.57
2022-10-21T18:14:17.730Z,68.74
2022-10-21T18:16:44.860Z,69.25
2022-10-21T18:19:12.814Z,69.38
2022-10-21T18:21:40.153Z,69.66
2022-10-21T18:24:11.344Z,69.95
2022-10-21T18:26:39.605Z,69.69
2022-10-21T18:29:06.801Z,70.19
2022-10-21T18:31:35.400Z,70.65
2022-10-21T18:34:03.959Z,70.02
2022-10-21T18:36:31.616Z,69.43
2022-10-21T18:38:59.431Z,69.52
2022-10-21T18:41:27.143Z,70.30
2022-10-21T18:43:56.191Z,70.83
2022-10-21T18:46:23.593Z,70.42
2022-10-21T18:48:50.781Z,70.52
2022-10-21T18:51:22.743Z,70.27
2022-10-21T18:53:52.740Z,70.40
2022-10-21T18:56:20.970Z,70.70
2022-10-21T18:58:48.809Z,71.02
2022-10-21T19:01:16.552Z,71.23
2022-10-21T19:03:44.719Z,71.16
2022-10-21T19:06:30.085Z,70.94
2022-10-21T19:08:57.472Z,70.54
2022-10-21T19:11:24.872Z,70.70
2022-10-21T19:13:52.020Z,70.49
2022-10-21T19:16:20.190Z,70.86
2022-10-21T19:18:47.405Z,70.71
2022-10-21T19:21:16.974Z,70.78
2022-10-21T19:23:44.100Z,70.65
2022-10-21T19:26:11.760Z,70.82
2022-10-21T19:28:39.726Z,70.56
2022-10-21T19:31:07.753Z,70.82
2022-10-21T19:33:35.195Z,70.62
2022-10-21T19:36:05.092Z,70.80
2022-10-21T19:38:43.669Z,70.58
2022-10-21T19:41:12.800Z,70.83
2022-10-21T19:43:39.991Z,71.55
2022-10-21T19:46:08.013Z,71.92
2022-10-21T19:48:36.105Z,72.19
2022-10-21T19:51:04.223Z,71.62
2022-10-21T19:53:33.235Z,71.60
2022-10-21T19:56:04.267Z,72.26
2022-10-21T19:58:32.263Z,72.07
2022-10-21T20:01:06.963Z,72.22
2022-10-21T20:03:34.228Z,71.92
2022-10-21T20:06:07.085Z,71.91
2022-10-21T20:08:34.623Z,72.72
2022-10-21T20:11:03.246Z,72.54
2022-10-21T20:13:30.916Z,72.46
2022-10-21T20:15:58.321Z,72.44
2022-10-21T20:18:27.383Z,72.87
2022-10-21T20:20:55.500Z,73.06
2022-10-21T20:23:23.403Z,72.90
2022-10-21T20:25:52.531Z,72.79
2022-10-21T20:28:20.065Z,73.27
2022-10-21T20:31:04.344Z,73.31
2022-10-21T20:33:32.416Z,73.18
2022-10-21T20:36:04.141Z,73.29
2022-10-21T20:38:31.718Z,73.11
2022-10-21T20:40:59.922Z,72.78
2022-10-21T20:43:27.080Z,72.68
2022-10-21T20:45:54.261Z,72.90
2022-10-21T20:48:21.454Z,73.51
2022-10-21T20:50:48.549Z,73.69
2022-10-21T20:53:15.669Z,73.63
2022-10-21T20:55:43.803Z,73.62
2022-10-21T20:58:11.218Z,73.67
2022-10-21T21:00:38.344Z,74.11
2022-10-21T21:03:05.432Z,74.30
2022-10-21T21:05:38.036Z,74.69
2022-10-21T21:08:06.538Z,74.04
2022-10-21T21:10:33.678Z,74.58
2022-10-21T21:13:00.873Z,74.90
2022-10-21T21:15:28.014Z,74.40
2022-10-21T21:17:56.206Z,74.19
2022-10-21T21:20:23.302Z,74.54
2022-10-21T21:22:50.381Z,74.23
2022-10-21T21:25:17.473Z,74.45
2022-10-21T21:27:44.582Z,74.68
2022-10-21T21:30:11.908Z,74.66
2022-10-21T21:32:39.299Z,74.86
2022-10-21T21:35:07.017Z,75.06
2022-10-21T21:37:34.155Z,74.62
2022-10-21T21:40:01.285Z,74.31
2022-10-21T21:42:28.324Z,74.23
2022-10-21T21:44:55.421Z,74.27
2022-10-21T21:47:22.551Z,74.34
2022-10-21T21:49:49.770Z,73.98
2022-10-21T21:52:16.986Z,74.04
2022-10-21T21:54:44.083Z,73.96
2022-10-21T21:57:26.945Z,72.68
2022-10-21T21:59:55.052Z,72.83
2022-10-21T22:02:22.201Z,72.24
2022-10-21T22:04:49.408Z,71.95
2022-10-21T22:07:16.594Z,71.53
2022-10-21T22:09:43.696Z,71.94
2022-10-21T22:12:14.392Z,71.64
2022-10-21T22:14:42.188Z,71.60
2022-10-21T22:17:09.388Z,71.47
2022-10-21T22:19:36.571Z,71.27
2022-10-21T22:22:03.730Z,71.87
2022-10-21T22:24:31.770Z,71.18
2022-10-21T22:26:58.873Z,70.67
2022-10-21T22:29:26.257Z,70.46
2022-10-21T22:31:53.808Z,70.84
2022-10-21T22:34:21.050Z,71.21
2022-10-21T22:36:48.281Z,71.39
2022-10-21T22:39:15.617Z,71.29
2022-10-21T22:41:42.744Z,70.99
2022-10-21T22:44:11.057Z,71.06
2022-10-21T22:46:38.314Z,71.25
2022-10-21T22:49:05.741Z,71.34
2022-10-21T22:51:33.564Z,71.03
2022-10-21T22:54:01.306Z,71.27
2022-10-21T22:56:28.783Z,71.08
2022-10-21T22:58:57.612Z,71.08
2022-10-21T23:01:28.844Z,71.24
2022-10-21T23:03:57.255Z,72.08
2022-10-21T23:06:24.418Z,72.20
2022-10-21T23:08:51.693Z,72.76
2022-10-21T23:11:18.872Z,73.06
2022-10-21T23:13:56.345Z,72.73
2022-10-21T23:16:30.393Z,72.43
2022-10-21T23:18:57.629Z,72.08
2022-10-21T23:21:24.835Z,72.08
2022-10-21T23:23:52.236Z,72.24
2022-10-21T23:26:19.518Z,72.11
2022-10-21T23:28:46.603Z,71.92
2022-10-21T23:31:13.947Z,72.33
2022-10-21T23:33:41.196Z,71.84
2022-10-21T23:36:08.405Z,72.53
2022-10-21T23:38:35.638Z,73.16
2022-10-21T23:41:02.812Z,73.63
2022-10-21T23:43:30.003Z,73.66
2022-10-21T23:45:58.005Z,73.77
2022-10-21T23:48:25.183Z,73.83
2022-10-21T23:50:52.370Z,73.68
2022-10-21T23:53:19.499Z,73.43
2022-10-21T23:55:46.668Z,73.41
2022-10-21T23:58:14.075Z,73.98
